Peawanuck, Canada
Current Conditions -  °F | °C
As of 11:00 AM on Friday 19 Dec 2014 (Local Time) from CYER Reporting Station
Clear Clear  
Wind Chill: -12°   Ceiling: Unl
Heat Index:   Visibility: 9mi
Dew Point:   Wind: 8mph
Humidity: 92%   Direction: 220°SW
Pressure: 30.15"   Gusts: NA
Location:  55.01°N, 85.42°W
Report Text: CYER 191600Z AUTO 22007KT 9SM CLR M17/M18 A3015 RMK SLP212
Loading
Personal Weather Stations






























Interactive Weather Map New forecast layout! Learn more

10-Day Weather Forecast

Advertisements
Track Severe Weather on mobile